Airfield :
LOGIN :

Register | Disclaimer

   EN    FR    IT 

 










Legend :    VFR   Marginal VFR   IFR   Intensive IFR   Very Intensive IFR
Visi :
Ceiling :
>= 8 km
>= 3000ft
5 to 8 km
1000 to 3000 ft
1500m to 5 km
500 to 1000 ft
800 to 1500m
200 to 500 ft
< 800m
< 200 ft
Symbols :   Thunderstorms  Fog  Heavy snow  Heavy precipitations  Wind > 20 kt
SIGMETs :     Misc.  Thunderstorms  Icing  Turbulence  Mountain Waves  Volcanic Ashes






- Airport Elevation : 584 ft


LFPV - Villacoublay Vélizy

CURRENT METAR :
  • 201500Z AUTO 16009KT 130V190 9999 -DZ FEW009 SCT034 BKN066 14/13 Q1008 TEMPO BKN005

EXPIRED METARs :
  • 201430Z AUTO 16010KT 9999 -RA SCT010/// BKN048/// BKN060/// ///TCU 14/13 Q1008 BECMG BKN030
  • 201400Z AUTO 17009KT 130V210 9999 -RA BKN011 BKN036 BKN066 14/13 Q1008 BECMG BKN030
  • 201330Z AUTO 16010KT 120V200 9999 -RA SCT011 SCT041 BKN062 14/12 Q1008 NOSIG
  • 201300Z AUTO 17010KT 120V200 9999 -RA FEW012 BKN050 BKN060 14/12 Q1009 NOSIG
  • 201230Z AUTO 17010KT 140V210 9999 -RA NSC 14/12 Q1009 NOSIG

TAF TAF LFPV
Valid from the 20 at 15:00 until the 21 at 15:00 UTC


201400Z 2015/2115 17008KT 9999 SCT010 BKN027 BKN065
PROB30
TEMPO 2015/2021 BKN005
PROB40
TEMPO 2020/2023 4000 RA
BECMG 2021/2023 BKN020
BECMG 2104/2106 16015G25KT
PROB40
TEMPO 2110/2115 14020G35KT
TEMPO 2112/2115 4000 SHRA SCT025TCU



MET'MAP, your aeronautical weather chart ! - Copyright ORBIFLY December 2007 - Disclaimer

ORBIFLY MET'MAP TEAM :

Programming & Development : Alexandra Zaïnal
Concept & original design : Baudouin d'Aumeries
Assistance for programming : Marc-Olivier Méhu
Technical & hardware support : Manuel Goepfert

Contact : metmap@orbifly.com




SOURCES & CREDITS :

   NOAA